createdAt,value
2022-11-02T00:00:37.477Z,100.00
2022-11-02T00:03:06.784Z,100.00
2022-11-02T00:05:36.194Z,100.00
2022-11-02T00:08:05.800Z,100.00
2022-11-02T00:10:35.238Z,100.00
2022-11-02T00:13:06.066Z,100.00
2022-11-02T00:15:37.269Z,100.00
2022-11-02T00:18:09.751Z,100.00
2022-11-02T00:20:39.659Z,100.00
2022-11-02T00:23:10.911Z,100.00
2022-11-02T00:25:42.468Z,100.00
2022-11-02T00:28:12.792Z,100.00
2022-11-02T00:30:41.934Z,100.00
2022-11-02T00:33:11.093Z,100.00
2022-11-02T00:35:40.780Z,100.00
2022-11-02T00:38:09.875Z,100.00
2022-11-02T00:40:38.814Z,100.00
2022-11-02T00:43:08.386Z,100.00
2022-11-02T00:45:41.302Z,100.00
2022-11-02T00:48:10.003Z,100.00
2022-11-02T00:50:39.085Z,100.00
2022-11-02T00:53:07.937Z,100.00
2022-11-02T00:55:37.020Z,100.00
2022-11-02T00:58:06.428Z,100.00
2022-11-02T01:00:35.438Z,100.00
2022-11-02T01:03:06.456Z,100.00
2022-11-02T01:05:35.459Z,100.00
2022-11-02T01:08:05.121Z,100.00
2022-11-02T01:10:34.978Z,100.00
2022-11-02T01:13:03.881Z,100.00
2022-11-02T01:15:33.737Z,100.00
2022-11-02T01:18:03.074Z,100.00
2022-11-02T01:20:33.762Z,100.00
2022-11-02T01:23:02.726Z,100.00
2022-11-02T01:25:31.586Z,100.00
2022-11-02T01:28:00.516Z,100.00
2022-11-02T01:30:29.443Z,100.00
2022-11-02T01:32:58.357Z,100.00
2022-11-02T01:35:28.611Z,100.00
2022-11-02T01:37:58.808Z,100.00
2022-11-02T01:40:27.662Z,100.00
2022-11-02T01:42:57.342Z,100.00
2022-11-02T01:45:26.215Z,100.00
2022-11-02T01:47:56.077Z,100.00
2022-11-02T01:50:28.649Z,100.00
2022-11-02T01:53:01.073Z,100.00
2022-11-02T01:55:33.962Z,100.00
2022-11-02T01:58:07.807Z,100.00
2022-11-02T02:00:38.816Z,100.00
2022-11-02T02:03:10.709Z,100.00
2022-11-02T02:05:43.722Z,100.00
2022-11-02T02:08:18.780Z,100.00
2022-11-02T02:10:47.591Z,100.00
2022-11-02T02:13:19.442Z,100.00
2022-11-02T02:15:57.051Z,100.00
2022-11-02T02:18:34.164Z,100.00
2022-11-02T02:21:21.264Z,100.00
2022-11-02T02:24:22.058Z,100.00
2022-11-02T02:27:10.819Z,100.00
2022-11-02T02:29:53.653Z,100.00
2022-11-02T02:32:29.951Z,100.00
2022-11-02T02:35:08.828Z,100.00
2022-11-02T02:37:45.214Z,100.00
2022-11-02T02:40:18.787Z,100.00
2022-11-02T02:42:49.824Z,100.00
2022-11-02T02:45:27.321Z,100.00
2022-11-02T02:48:02.358Z,100.00
2022-11-02T02:50:38.737Z,100.00
2022-11-02T02:53:09.661Z,100.00
2022-11-02T02:55:45.046Z,100.00
2022-11-02T02:58:19.840Z,100.00
2022-11-02T03:00:53.267Z,100.00
2022-11-02T03:03:27.375Z,100.00
2022-11-02T03:06:06.072Z,100.00
2022-11-02T03:08:39.709Z,100.00
2022-11-02T03:11:14.632Z,100.00
2022-11-02T03:14:00.173Z,100.00
2022-11-02T03:16:44.004Z,100.00
2022-11-02T03:19:24.857Z,100.00
2022-11-02T03:22:02.121Z,100.00
2022-11-02T03:24:37.346Z,100.00
2022-11-02T03:27:17.473Z,100.00
2022-11-02T03:29:54.777Z,100.00
2022-11-02T03:32:32.922Z,100.00
2022-11-02T03:35:06.907Z,100.00
2022-11-02T03:37:40.591Z,100.00
2022-11-02T03:40:17.442Z,100.00
2022-11-02T03:42:48.380Z,100.00
2022-11-02T03:45:20.439Z,100.00
2022-11-02T03:47:56.044Z,100.00
2022-11-02T03:50:27.828Z,100.00
2022-11-02T03:53:00.377Z,100.00
2022-11-02T03:55:34.593Z,100.00
2022-11-02T03:58:04.463Z,100.00
2022-11-02T04:00:36.216Z,100.00
2022-11-02T04:03:13.447Z,100.00
2022-11-02T04:05:46.264Z,100.00
2022-11-02T04:08:35.465Z,100.00
2022-11-02T04:11:25.788Z,100.00
2022-11-02T04:14:16.398Z,100.00
2022-11-02T04:17:11.057Z,100.00
2022-11-02T04:19:45.445Z,100.00
2022-11-02T04:22:35.953Z,100.00
2022-11-02T04:25:19.507Z,100.00
2022-11-02T04:27:57.613Z,100.00
2022-11-02T04:30:32.282Z,100.00
2022-11-02T04:33:20.389Z,100.00
2022-11-02T04:36:00.863Z,100.00
2022-11-02T04:38:41.810Z,100.00
2022-11-02T04:41:45.568Z,100.00
2022-11-02T04:44:18.581Z,100.00
2022-11-02T04:46:58.814Z,100.00
2022-11-02T04:49:31.776Z,100.00
2022-11-02T04:52:02.840Z,100.00
2022-11-02T04:54:34.866Z,100.00
2022-11-02T04:57:06.768Z,100.00
2022-11-02T04:59:35.956Z,100.00
2022-11-02T05:02:05.488Z,100.00
2022-11-02T05:04:35.613Z,100.00
2022-11-02T05:07:07.803Z,100.00
2022-11-02T05:09:38.745Z,100.00
2022-11-02T05:12:08.303Z,100.00
2022-11-02T05:14:37.398Z,100.00
2022-11-02T05:17:06.489Z,100.00
2022-11-02T05:19:37.691Z,100.00
2022-11-02T05:22:09.735Z,100.00
2022-11-02T05:24:38.615Z,100.00
2022-11-02T05:27:11.849Z,100.00
2022-11-02T05:29:41.636Z,100.00
2022-11-02T05:32:11.175Z,100.00
2022-11-02T05:34:42.102Z,100.00
2022-11-02T05:37:14.483Z,100.00
2022-11-02T05:39:47.860Z,100.00
2022-11-02T05:42:20.759Z,100.00
2022-11-02T05:44:50.131Z,100.00
2022-11-02T05:47:19.233Z,100.00
2022-11-02T05:49:49.989Z,100.00
2022-11-02T05:52:23.117Z,100.00
2022-11-02T05:54:54.704Z,100.00
2022-11-02T05:57:23.797Z,100.00
2022-11-02T05:59:52.788Z,100.00
2022-11-02T06:02:23.405Z,100.00
2022-11-02T06:04:54.492Z,100.00
2022-11-02T06:07:27.770Z,100.00
2022-11-02T06:09:57.020Z,100.00
2022-11-02T06:12:25.902Z,100.00
2022-11-02T06:14:55.241Z,100.00
2022-11-02T06:17:24.439Z,100.00
2022-11-02T06:19:53.348Z,100.00
2022-11-02T06:22:22.703Z,100.00
2022-11-02T06:24:53.438Z,100.00
2022-11-02T06:27:22.670Z,100.00
2022-11-02T06:29:52.108Z,100.00
2022-11-02T06:32:21.098Z,100.00
2022-11-02T06:34:50.237Z,100.00
2022-11-02T06:37:19.163Z,100.00
2022-11-02T06:39:48.268Z,100.00
2022-11-02T06:42:18.493Z,100.00
2022-11-02T06:44:47.482Z,100.00
2022-11-02T06:47:16.577Z,100.00
2022-11-02T06:49:45.675Z,100.00
2022-11-02T06:52:15.058Z,100.00
2022-11-02T06:54:44.116Z,100.00
2022-11-02T06:57:13.045Z,100.00
2022-11-02T06:59:43.214Z,100.00
2022-11-02T07:02:12.293Z,100.00
2022-11-02T07:04:44.264Z,100.00
2022-11-02T07:07:13.311Z,100.00
2022-11-02T07:09:42.547Z,100.00
2022-11-02T07:12:11.632Z,100.00
2022-11-02T07:14:40.907Z,100.00
2022-11-02T07:17:11.648Z,100.00
2022-11-02T07:19:40.564Z,100.00
2022-11-02T07:22:09.517Z,100.00
2022-11-02T07:24:40.730Z,100.00
2022-11-02T07:27:09.688Z,100.00
2022-11-02T07:29:38.567Z,100.00
2022-11-02T07:32:09.088Z,100.00
2022-11-02T07:34:39.409Z,100.00
2022-11-02T07:37:08.293Z,100.00
2022-11-02T07:39:37.239Z,100.00
2022-11-02T07:42:07.261Z,100.00
2022-11-02T07:44:41.977Z,100.00
2022-11-02T07:47:11.361Z,100.00
2022-11-02T07:49:42.314Z,100.00
2022-11-02T07:52:11.957Z,100.00
2022-11-02T07:54:44.569Z,100.00
2022-11-02T07:57:14.107Z,100.00
2022-11-02T07:59:43.791Z,100.00
2022-11-02T08:02:14.865Z,100.00
2022-11-02T08:04:46.503Z,100.00
2022-11-02T08:07:16.310Z,100.00
2022-11-02T08:09:46.013Z,100.00
2022-11-02T08:12:15.521Z,100.00
2022-11-02T08:14:44.720Z,100.00
2022-11-02T08:17:13.974Z,100.00
2022-11-02T08:19:43.337Z,100.00
2022-11-02T08:22:13.948Z,100.00
2022-11-02T08:24:43.333Z,100.00
2022-11-02T08:27:12.611Z,100.00
2022-11-02T08:29:44.377Z,100.00
2022-11-02T08:32:14.402Z,100.00
2022-11-02T08:34:45.670Z,100.00
2022-11-02T08:37:16.285Z,100.00
2022-11-02T08:39:45.315Z,100.00
2022-11-02T08:42:16.576Z,100.00
2022-11-02T08:44:45.664Z,100.00
2022-11-02T08:47:15.984Z,100.00
2022-11-02T08:49:47.095Z,100.00
2022-11-02T08:52:17.718Z,100.00
2022-11-02T08:54:47.028Z,100.00
2022-11-02T08:57:16.463Z,100.00
2022-11-02T08:59:45.637Z,100.00
2022-11-02T09:02:14.812Z,100.00
2022-11-02T09:04:44.228Z,100.00
2022-11-02T09:07:17.136Z,100.00
2022-11-02T09:09:46.293Z,100.00
2022-11-02T09:12:15.967Z,100.00
2022-11-02T09:14:45.351Z,100.00
2022-11-02T09:17:14.587Z,99.96
2022-11-02T09:19:44.026Z,100.00
2022-11-02T09:22:13.230Z,94.72
2022-11-02T09:24:43.593Z,92.08
2022-11-02T09:27:12.538Z,95.38
2022-11-02T09:29:41.552Z,90.96
2022-11-02T09:32:11.041Z,93.23
2022-11-02T09:34:40.366Z,88.83
2022-11-02T09:37:09.337Z,92.64
2022-11-02T09:39:38.745Z,85.87
2022-11-02T09:42:20.385Z,86.81
2022-11-02T09:44:52.516Z,88.33
2022-11-02T09:50:18.927Z,87.94
2022-11-02T09:52:58.811Z,89.80
2022-11-02T09:55:31.907Z,86.78
2022-11-02T09:58:07.486Z,87.66
2022-11-02T10:00:42.032Z,80.44
2022-11-02T10:03:21.920Z,62.18
2022-11-02T10:05:58.424Z,56.66
2022-11-02T10:08:39.546Z,53.38
2022-11-02T10:11:20.542Z,51.03
2022-11-02T10:13:57.059Z,48.89
2022-11-02T10:16:38.310Z,46.48
2022-11-02T10:19:14.872Z,44.86
2022-11-02T10:21:48.273Z,42.65
2022-11-02T10:24:25.825Z,43.83
2022-11-02T10:26:58.322Z,43.18
2022-11-02T10:29:41.442Z,39.50
2022-11-02T10:32:12.710Z,40.29
2022-11-02T10:34:42.942Z,41.44
2022-11-02T10:38:14.998Z,41.71
2022-11-02T10:41:08.799Z,41.17
2022-11-02T10:43:54.362Z,44.85
2022-11-02T10:46:42.527Z,42.99
2022-11-02T10:49:18.278Z,43.67
2022-11-02T10:51:47.579Z,38.11
2022-11-02T10:54:21.663Z,36.10
2022-11-02T10:57:09.211Z,34.11
2022-11-02T10:59:39.201Z,33.05
2022-11-02T11:02:17.099Z,33.83
2022-11-02T11:04:47.433Z,33.38
2022-11-02T11:07:30.436Z,32.20
2022-11-02T11:10:00.047Z,33.74
2022-11-02T11:12:34.716Z,32.98
2022-11-02T11:20:49.698Z,34.81
2022-11-02T11:23:21.740Z,34.86
2022-11-02T11:26:00.200Z,33.67
2022-11-02T11:28:32.084Z,32.64
2022-11-02T11:31:09.045Z,31.03
2022-11-02T11:33:49.639Z,31.36
2022-11-02T11:36:28.403Z,33.34
2022-11-02T11:39:01.463Z,34.86
2022-11-02T11:41:32.866Z,36.78
2022-11-02T11:44:03.733Z,36.84
2022-11-02T11:46:44.031Z,36.27
2022-11-02T11:49:36.033Z,36.21
2022-11-02T11:52:20.541Z,36.91
2022-11-02T11:55:00.969Z,38.25
2022-11-02T11:57:33.003Z,40.42
2022-11-02T12:00:05.275Z,41.15
2022-11-02T12:02:43.843Z,41.93
2022-11-02T12:05:16.707Z,43.53
2022-11-02T12:08:16.219Z,46.48
2022-11-02T12:11:03.836Z,46.95
2022-11-02T12:13:51.956Z,48.65
2022-11-02T12:16:31.167Z,50.09
2022-11-02T12:19:23.749Z,51.03
2022-11-02T12:22:04.074Z,52.93
2022-11-02T12:25:05.558Z,53.20
2022-11-02T12:27:43.677Z,55.12
2022-11-02T12:30:16.644Z,55.38
2022-11-02T12:32:59.885Z,60.43
2022-11-02T12:36:05.341Z,61.61
2022-11-02T12:38:52.943Z,65.86
2022-11-02T12:42:09.993Z,66.84
2022-11-02T12:44:50.205Z,64.56
2022-11-02T12:47:30.174Z,63.80
2022-11-02T12:50:10.087Z,61.16
2022-11-02T12:52:53.657Z,62.50
2022-11-02T12:55:38.177Z,63.38
2022-11-02T12:58:19.580Z,65.95
2022-11-02T13:00:57.028Z,67.17
2022-11-02T13:03:37.309Z,72.61
2022-11-02T13:06:14.531Z,76.23
2022-11-02T13:08:50.293Z,78.09
2022-11-02T13:11:26.168Z,80.19
2022-11-02T13:13:58.970Z,82.94
2022-11-02T13:16:40.862Z,84.59
2022-11-02T13:19:19.487Z,86.18
2022-11-02T13:21:54.110Z,89.16
2022-11-02T13:24:30.662Z,92.82
2022-11-02T13:29:59.287Z,100.00
2022-11-02T13:32:34.362Z,100.00
2022-11-02T13:35:14.169Z,100.00
2022-11-02T13:37:48.104Z,100.00
2022-11-02T13:40:23.069Z,100.00
2022-11-02T13:43:30.189Z,100.00
2022-11-02T13:46:13.075Z,100.00
2022-11-02T13:48:52.632Z,100.00
2022-11-02T13:51:29.132Z,100.00
2022-11-02T13:54:04.968Z,100.00
2022-11-02T13:56:37.676Z,100.00
2022-11-02T13:59:09.311Z,100.00
2022-11-02T14:01:42.607Z,100.00
2022-11-02T14:04:14.741Z,100.00
2022-11-02T14:06:51.214Z,100.00
2022-11-02T14:09:32.110Z,100.00
2022-11-02T14:12:27.374Z,100.00
2022-11-02T14:16:03.726Z,100.00
2022-11-02T14:18:34.664Z,100.00
2022-11-02T14:21:36.693Z,100.00
2022-11-02T14:24:48.383Z,100.00
2022-11-02T14:27:31.150Z,100.00
2022-11-02T14:30:00.682Z,100.00
2022-11-02T14:32:41.735Z,100.00
2022-11-02T14:35:46.985Z,100.00
2022-11-02T14:38:40.003Z,100.00
2022-11-02T14:41:32.199Z,100.00
2022-11-02T14:44:23.889Z,100.00
2022-11-02T14:46:57.677Z,100.00
2022-11-02T14:49:29.806Z,100.00
2022-11-02T14:52:04.676Z,100.00
2022-11-02T14:54:37.733Z,100.00
2022-11-02T14:57:16.495Z,100.00
2022-11-02T14:59:49.864Z,100.00
2022-11-02T15:02:24.818Z,100.00
2022-11-02T15:04:56.330Z,100.00
2022-11-02T15:07:34.872Z,100.00
2022-11-02T15:10:07.207Z,100.00
2022-11-02T15:12:41.280Z,100.00
2022-11-02T15:15:32.970Z,100.00
2022-11-02T15:18:33.706Z,100.00
2022-11-02T15:21:25.524Z,100.00
2022-11-02T15:24:15.505Z,100.00
2022-11-02T15:26:51.014Z,100.00
2022-11-02T15:29:36.556Z,100.00
2022-11-02T15:32:10.047Z,100.00
2022-11-02T15:34:43.830Z,100.00
2022-11-02T15:37:18.428Z,100.00
2022-11-02T15:39:53.548Z,100.00
2022-11-02T15:42:33.532Z,100.00
2022-11-02T15:45:49.430Z,100.00
2022-11-02T15:48:37.006Z,100.00
2022-11-02T15:51:20.661Z,100.00
2022-11-02T15:54:13.558Z,100.00
2022-11-02T15:57:02.758Z,100.00
2022-11-02T15:59:55.210Z,100.00
2022-11-02T16:02:27.977Z,100.00
2022-11-02T16:05:00.194Z,100.00
2022-11-02T16:07:38.287Z,100.00
2022-11-02T16:10:25.663Z,100.00
2022-11-02T16:13:00.444Z,100.00
2022-11-02T16:15:30.580Z,100.00
2022-11-02T16:17:59.751Z,100.00
2022-11-02T16:20:31.052Z,100.00
2022-11-02T16:23:02.092Z,100.00
2022-11-02T16:25:39.911Z,100.00
2022-11-02T16:28:20.396Z,100.00
2022-11-02T16:31:12.737Z,100.00
2022-11-02T16:33:49.573Z,100.00
2022-11-02T16:36:21.190Z,100.00
2022-11-02T16:38:59.591Z,100.00
2022-11-02T16:41:31.281Z,100.00
2022-11-02T16:44:03.808Z,100.00
2022-11-02T16:46:43.351Z,100.00
2022-11-02T16:49:18.721Z,100.00
2022-11-02T16:51:53.178Z,100.00
2022-11-02T16:54:41.292Z,100.00
2022-11-02T16:57:19.788Z,100.00
2022-11-02T16:59:54.810Z,100.00
2022-11-02T17:02:36.212Z,100.00
2022-11-02T17:05:07.761Z,100.00
2022-11-02T17:07:42.413Z,100.00
2022-11-02T17:10:22.224Z,100.00
2022-11-02T17:12:51.586Z,100.00
2022-11-02T17:15:25.180Z,100.00
2022-11-02T17:18:16.720Z,100.00
2022-11-02T17:20:46.207Z,100.00
2022-11-02T17:23:33.894Z,100.00
2022-11-02T17:26:42.165Z,100.00
2022-11-02T17:29:32.289Z,100.00
2022-11-02T17:32:05.225Z,100.00
2022-11-02T17:34:35.781Z,100.00
2022-11-02T17:37:06.791Z,100.00
2022-11-02T17:39:36.244Z,100.00
2022-11-02T17:42:23.137Z,100.00
2022-11-02T17:44:52.650Z,100.00
2022-11-02T17:47:23.468Z,100.00
2022-11-02T17:49:52.684Z,100.00
2022-11-02T17:52:21.833Z,100.00
2022-11-02T17:54:51.285Z,100.00
2022-11-02T17:57:21.170Z,100.00
2022-11-02T17:59:51.746Z,100.00
2022-11-02T18:02:22.472Z,100.00
2022-11-02T18:04:51.709Z,100.00
2022-11-02T18:07:21.026Z,100.00
2022-11-02T18:09:49.953Z,100.00
2022-11-02T18:12:21.975Z,100.00
2022-11-02T18:14:51.766Z,100.00
2022-11-02T18:17:27.149Z,100.00
2022-11-02T18:19:58.045Z,100.00
2022-11-02T18:22:28.023Z,100.00
2022-11-02T18:25:04.779Z,100.00
2022-11-02T18:27:33.864Z,100.00
2022-11-02T18:30:03.241Z,100.00
2022-11-02T18:32:56.190Z,100.00
2022-11-02T18:35:26.561Z,100.00
2022-11-02T18:38:01.715Z,100.00
2022-11-02T18:40:42.968Z,100.00
2022-11-02T18:43:16.750Z,100.00
2022-11-02T18:45:45.965Z,100.00
2022-11-02T18:48:17.145Z,100.00
2022-11-02T18:50:46.580Z,100.00
2022-11-02T18:56:31.957Z,100.00
2022-11-02T18:59:01.459Z,100.00
2022-11-02T19:01:37.979Z,100.00
2022-11-02T19:04:16.948Z,100.00
2022-11-02T19:07:13.838Z,100.00
2022-11-02T19:09:46.896Z,100.00
2022-11-02T19:12:20.310Z,100.00
2022-11-02T19:14:51.674Z,100.00
2022-11-02T19:17:20.793Z,100.00
2022-11-02T19:19:54.967Z,100.00
2022-11-02T19:22:28.861Z,100.00
2022-11-02T19:24:58.225Z,100.00
2022-11-02T19:27:27.756Z,100.00
2022-11-02T19:29:56.937Z,100.00
2022-11-02T19:32:29.165Z,100.00
2022-11-02T19:35:00.647Z,100.00
2022-11-02T19:37:34.302Z,100.00
2022-11-02T19:40:04.426Z,100.00
2022-11-02T19:42:33.661Z,100.00
2022-11-02T19:45:04.405Z,100.00
2022-11-02T19:47:34.068Z,100.00
2022-11-02T19:50:04.465Z,100.00
2022-11-02T19:52:41.495Z,100.00
2022-11-02T19:55:12.980Z,100.00
2022-11-02T19:57:43.346Z,100.00
2022-11-02T20:00:14.853Z,100.00
2022-11-02T20:02:48.838Z,100.00
2022-11-02T20:05:22.079Z,100.00
2022-11-02T20:07:55.244Z,100.00
2022-11-02T20:10:32.731Z,100.00
2022-11-02T20:13:07.363Z,100.00
2022-11-02T20:15:45.013Z,100.00
2022-11-02T20:18:19.448Z,100.00
2022-11-02T20:20:52.578Z,100.00
2022-11-02T20:23:45.845Z,100.00
2022-11-02T20:26:17.325Z,100.00
2022-11-02T20:28:53.155Z,100.00
2022-11-02T20:31:24.130Z,100.00
2022-11-02T20:33:57.116Z,100.00
2022-11-02T20:36:30.549Z,100.00
2022-11-02T20:39:04.674Z,100.00
2022-11-02T20:41:36.079Z,100.00
2022-11-02T20:44:07.227Z,100.00
2022-11-02T20:46:41.451Z,100.00
2022-11-02T20:49:22.324Z,100.00
2022-11-02T20:52:03.836Z,100.00
2022-11-02T20:54:33.289Z,100.00
2022-11-02T20:57:08.695Z,100.00
2022-11-02T20:59:38.159Z,100.00
2022-11-02T21:02:08.486Z,100.00
2022-11-02T21:04:59.612Z,100.00
2022-11-02T21:07:30.138Z,100.00
2022-11-02T21:10:01.961Z,100.00
2022-11-02T21:12:50.550Z,100.00
2022-11-02T21:15:21.859Z,100.00
2022-11-02T21:17:53.409Z,100.00
2022-11-02T21:20:34.092Z,100.00
2022-11-02T21:23:06.475Z,100.00
2022-11-02T21:25:36.569Z,100.00
2022-11-02T21:28:06.101Z,100.00
2022-11-02T21:30:37.157Z,100.00
2022-11-02T21:33:15.835Z,100.00
2022-11-02T21:35:52.633Z,100.00
2022-11-02T21:38:26.982Z,100.00
2022-11-02T21:41:00.138Z,100.00
2022-11-02T21:43:29.385Z,100.00
2022-11-02T21:45:59.910Z,100.00
2022-11-02T21:48:39.228Z,100.00
2022-11-02T21:51:12.178Z,100.00
2022-11-02T21:53:44.032Z,100.00
2022-11-02T21:56:15.888Z,100.00
2022-11-02T21:58:46.511Z,100.00
2022-11-02T22:01:38.506Z,100.00
2022-11-02T22:04:08.311Z,100.00
2022-11-02T22:06:37.969Z,100.00
2022-11-02T22:09:09.775Z,100.00
2022-11-02T22:11:38.723Z,100.00
2022-11-02T22:14:08.122Z,100.00
2022-11-02T22:16:38.901Z,100.00
2022-11-02T22:19:09.565Z,100.00
2022-11-02T22:21:40.991Z,100.00
2022-11-02T22:24:13.461Z,100.00
2022-11-02T22:26:42.525Z,100.00
2022-11-02T22:29:12.256Z,100.00
2022-11-02T22:31:42.002Z,100.00
2022-11-02T22:34:13.343Z,100.00
2022-11-02T22:36:44.545Z,100.00
2022-11-02T22:39:15.928Z,100.00
2022-11-02T22:41:46.681Z,100.00
2022-11-02T22:44:17.514Z,100.00
2022-11-02T22:46:48.926Z,100.00
2022-11-02T22:49:19.949Z,100.00
2022-11-02T22:51:51.351Z,100.00
2022-11-02T22:54:21.826Z,100.00
2022-11-02T22:56:50.923Z,100.00
2022-11-02T22:59:20.951Z,100.00
2022-11-02T23:01:51.410Z,100.00
2022-11-02T23:04:20.746Z,100.00
2022-11-02T23:06:49.633Z,100.00
2022-11-02T23:09:18.546Z,100.00
2022-11-02T23:11:47.797Z,100.00
2022-11-02T23:14:21.265Z,100.00
2022-11-02T23:16:50.172Z,100.00
2022-11-02T23:19:30.993Z,100.00
2022-11-02T23:22:19.659Z,100.00
2022-11-02T23:25:07.998Z,100.00
2022-11-02T23:27:55.673Z,100.00
2022-11-02T23:30:42.317Z,100.00
2022-11-02T23:33:11.627Z,100.00
2022-11-02T23:35:58.258Z,100.00
2022-11-02T23:38:48.448Z,100.00
2022-11-02T23:41:18.244Z,100.00
2022-11-02T23:43:48.915Z,100.00
2022-11-02T23:46:18.913Z,100.00
2022-11-02T23:48:51.121Z,100.00
2022-11-02T23:51:40.537Z,100.00
2022-11-02T23:54:27.284Z,100.00
2022-11-02T23:56:56.681Z,100.00
2022-11-02T23:59:27.362Z,100.00
